Time;durP1;ratioP1;P1;durP2;ratioP2;P2;SDS_P1;SDS_P2;PMS_P1;PMS_P2;Temp;Humidity;BMP_temperature;BMP_pressure;BME280_temperature;BME280_humidity;BME280_pressure;Samples;Min_cycle;Max_cycle;Signal;HPM_P1;HPM_P2
2022/01/27 00:00:44;;;;;;;26.33;13.23;;;;;;;-0.16;100.00;99531.16;5091282;28;20293;-63
2022/01/27 00:03:26;;;;;;;26.67;13.97;;;;;;;-0.10;100.00;99520.72;5106068;28;20270;-63
2022/01/27 00:05:55;;;;;;;27.17;14.33;;;;;;;-0.07;100.00;99510.34;5103051;28;20252;-63
2022/01/27 00:08:28;;;;;;;26.63;13.47;;;;;;;-0.14;100.00;99506.94;5086203;28;20253;-63
2022/01/27 00:10:58;;;;;;;30.17;15.70;;;;;;;-0.13;100.00;99515.56;5106982;28;20622;-63
2022/01/27 00:13:30;;;;;;;28.40;14.70;;;;;;;-0.04;100.00;99510.31;5105483;28;20217;-63
2022/01/27 00:16:12;;;;;;;29.67;13.77;;;;;;;-0.10;100.00;99509.50;5104238;28;20238;-63
2022/01/27 00:18:39;;;;;;;27.53;14.20;;;;;;;-0.14;100.00;99512.13;5106364;28;20224;-62
2022/01/27 00:21:06;;;;;;;32.83;15.20;;;;;;;-0.13;100.00;99518.16;5104316;28;20237;-63
2022/01/27 00:23:34;;;;;;;28.10;14.37;;;;;;;-0.08;100.00;99503.41;5102865;28;20300;-63
2022/01/27 00:26:01;;;;;;;27.63;14.03;;;;;;;-0.08;100.00;99505.13;5106312;28;20608;-63
2022/01/27 00:28:28;;;;;;;30.60;14.07;;;;;;;0.05;100.00;99499.00;5106557;28;20213;-63
2022/01/27 00:30:55;;;;;;;29.80;13.80;;;;;;;0.00;100.00;99505.97;5104619;28;20210;-63
2022/01/27 00:33:21;;;;;;;29.03;14.43;;;;;;;0.06;100.00;99493.78;5102491;28;20218;-63
2022/01/27 00:35:48;;;;;;;28.23;14.00;;;;;;;-0.10;100.00;99486.94;5104317;28;20213;-63
2022/01/27 00:38:14;;;;;;;30.67;14.60;;;;;;;-0.16;100.00;99478.34;5106366;28;20224;-63
2022/01/27 00:40:42;;;;;;;27.07;13.00;;;;;;;-0.08;100.00;99488.69;5104845;28;20217;-64
2022/01/27 00:43:09;;;;;;;27.70;15.10;;;;;;;-0.10;100.00;99489.56;5102781;28;20237;-63
2022/01/27 00:45:35;;;;;;;29.13;13.57;;;;;;;-0.08;100.00;99491.31;5105434;28;20238;-63
2022/01/27 00:48:04;;;;;;;27.00;14.07;;;;;;;-0.15;100.00;99493.06;5106239;28;20568;-63
2022/01/27 00:50:32;;;;;;;29.53;15.07;;;;;;;-0.19;100.00;99493.09;5104800;28;20251;-63
2022/01/27 00:53:02;;;;;;;29.33;13.83;;;;;;;-0.25;100.00;99490.53;5102536;28;20244;-63
2022/01/27 00:55:33;;;;;;;24.50;13.57;;;;;;;-0.17;100.00;99501.72;5099524;28;20310;-62
2022/01/27 00:58:11;;;;;;;30.63;15.43;;;;;;;-0.17;100.00;99498.25;5106239;28;20676;-63
2022/01/27 01:00:43;;;;;;;27.73;14.00;;;;;;;-0.19;100.00;99501.72;5098960;28;20267;-63
2022/01/27 01:03:14;;;;;;;28.27;14.07;;;;;;;-0.17;100.00;99504.31;5103678;28;20216;-62
2022/01/27 01:06:01;;;;;;;27.87;13.90;;;;;;;-0.12;100.00;99511.25;5105830;28;20711;-63
2022/01/27 01:17:07;;;;;;;26.17;13.73;;;;;;;-0.02;100.00;99493.00;5062595;28;20225;-63
2022/01/27 01:19:46;;;;;;;27.30;13.90;;;;;;;-0.08;100.00;99493.91;5109738;28;20231;-63
2022/01/27 01:30:45;;;;;;;27.93;15.20;;;;;;;-0.17;100.00;99492.22;5105262;28;20627;-63
2022/01/27 01:33:19;;;;;;;30.17;15.07;;;;;;;-0.15;100.00;99495.66;5095109;28;20209;-63
2022/01/27 01:35:48;;;;;;;27.80;13.63;;;;;;;-0.19;100.00;99493.09;5107999;28;20240;-63
2022/01/27 01:38:17;;;;;;;27.77;14.57;;;;;;;-0.18;100.00;99495.69;5105603;28;20222;-63
2022/01/27 01:40:45;;;;;;;28.33;13.67;;;;;;;-0.10;100.00;99493.91;5109157;28;20212;-63
2022/01/27 01:43:11;;;;;;;28.67;14.87;;;;;;;-0.11;100.00;99493.03;5109586;28;20263;-63
2022/01/27 01:45:39;;;;;;;27.27;14.60;;;;;;;-0.06;100.00;99490.44;5107144;28;20244;-63
2022/01/27 01:48:05;;;;;;;30.80;14.47;;;;;;;-0.08;100.00;99485.22;5105347;28;20217;-63
2022/01/27 01:50:32;;;;;;;30.40;14.47;;;;;;;-0.13;100.00;99490.47;5108656;28;20221;-63
2022/01/27 01:52:59;;;;;;;27.43;14.47;;;;;;;-0.17;100.00;99482.66;5108860;28;20676;-63
2022/01/27 01:55:26;;;;;;;28.50;13.83;;;;;;;-0.13;100.00;99474.00;5106319;27;20217;-63
2022/01/27 01:57:52;;;;;;;25.30;13.33;;;;;;;-0.03;100.00;99478.28;5105561;28;20594;-63
2022/01/27 02:00:20;;;;;;;25.63;13.27;;;;;;;0.00;100.00;99470.44;5099654;28;20226;-63
2022/01/27 02:02:48;;;;;;;28.13;14.87;;;;;;;-0.02;100.00;99460.94;5097397;28;20210;-63
2022/01/27 02:05:14;;;;;;;32.33;14.33;;;;;;;-0.02;100.00;99459.22;5097599;28;20260;-63
2022/01/27 02:07:57;;;;;;;26.87;13.23;;;;;;;0.02;100.00;99447.06;5097352;28;20280;-63
2022/01/27 02:10:40;;;;;;;28.93;14.30;;;;;;;-0.03;100.00;99444.50;5090121;28;20218;-63
2022/01/27 02:18:40;;;;;;;27.17;14.50;;;;;;;0.02;100.00;99442.69;5108610;28;20220;-63
2022/01/27 02:21:08;;;;;;;24.23;12.90;;;;;;;0.03;100.00;99441.84;5104521;28;20572;-63
2022/01/27 02:23:35;;;;;;;24.50;12.73;;;;;;;0.01;100.00;99438.38;5101065;28;20226;-63
2022/01/27 02:26:01;;;;;;;29.93;14.67;;;;;;;-0.07;100.00;99437.56;5088938;28;20238;-63
2022/01/27 02:28:28;;;;;;;25.10;13.17;;;;;;;0.00;100.00;99439.25;5108381;28;20213;-63
2022/01/27 02:30:54;;;;;;;25.27;13.30;;;;;;;0.02;100.00;99453.09;5106172;28;20228;-63
2022/01/27 02:33:30;;;;;;;26.10;13.63;;;;;;;-0.01;100.00;99452.25;5104548;28;20209;-63
2022/01/27 02:35:57;;;;;;;25.50;13.23;;;;;;;-0.05;100.00;99454.00;5090801;28;20212;-63
2022/01/27 02:38:25;;;;;;;26.37;13.30;;;;;;;-0.03;100.00;99441.91;5108178;28;20218;-63
2022/01/27 02:40:59;;;;;;;25.57;13.23;;;;;;;-0.10;100.00;99450.56;5105178;28;20213;-63
2022/01/27 02:43:26;;;;;;;22.37;12.30;;;;;;;-0.12;100.00;99454.94;5106008;28;20339;-63
2022/01/27 02:45:59;;;;;;;26.80;13.53;;;;;;;-0.12;100.00;99449.72;5106664;28;20700;-63
2022/01/27 02:48:26;;;;;;;25.40;12.87;;;;;;;-0.06;100.00;99452.28;5107698;28;20216;-63
2022/01/27 02:50:53;;;;;;;28.00;13.10;;;;;;;0.04;100.00;99440.97;5104232;28;20707;-63
2022/01/27 02:53:19;;;;;;;20.90;12.60;;;;;;;0.04;100.00;99446.16;5106296;28;20217;-63
2022/01/27 02:55:47;;;;;;;24.93;13.23;;;;;;;0.10;100.00;99445.25;5108136;28;20214;-63
2022/01/27 02:58:15;;;;;;;24.37;12.83;;;;;;;0.05;100.00;99450.50;5107735;28;20222;-63
2022/01/27 03:00:42;;;;;;;26.57;12.87;;;;;;;0.02;100.00;99468.69;5103964;28;20221;-63
2022/01/27 03:03:08;;;;;;;21.67;12.30;;;;;;;-0.04;100.00;99468.72;5105799;28;20264;-63
2022/01/27 03:05:35;;;;;;;27.10;12.97;;;;;;;0.04;100.00;99479.97;5108002;28;20245;-63
2022/01/27 03:08:01;;;;;;;25.10;13.37;;;;;;;0.03;100.00;99472.16;5107818;28;20224;-63
2022/01/27 03:10:30;;;;;;;25.80;13.73;;;;;;;-0.06;100.00;99470.47;5104082;28;20211;-63
2022/01/27 03:13:00;;;;;;;24.50;13.30;;;;;;;-0.02;100.00;99471.31;5103623;28;20203;-63
2022/01/27 03:15:26;;;;;;;26.80;13.30;;;;;;;-0.17;100.00;99472.28;5107355;28;20245;-63
2022/01/27 03:17:53;;;;;;;23.13;12.50;;;;;;;-0.19;100.00;99472.31;5107323;28;20210;-63
2022/01/27 03:20:20;;;;;;;25.93;12.93;;;;;;;-0.16;100.00;99457.56;5103818;28;20214;-63
2022/01/27 03:22:46;;;;;;;25.83;12.87;;;;;;;-0.13;100.00;99463.59;5105531;28;20211;-63
2022/01/27 03:25:13;;;;;;;23.90;13.23;;;;;;;-0.14;100.00;99457.56;5105370;28;20214;-63
2022/01/27 03:27:45;;;;;;;25.67;12.50;;;;;;;-0.07;100.00;99460.09;5107639;28;20213;-63
2022/01/27 03:30:15;;;;;;;24.87;13.40;;;;;;;-0.07;100.00;99453.16;5102291;28;20223;-63
2022/01/27 03:32:42;;;;;;;25.97;13.23;;;;;;;-0.04;100.00;99458.34;5106147;28;20229;-63
2022/01/27 03:35:09;;;;;;;27.30;13.47;;;;;;;-0.10;100.00;99453.16;5107556;28;20214;-63
2022/01/27 03:37:35;;;;;;;26.17;13.00;;;;;;;-0.22;100.00;99436.81;5105592;28;20210;-63
2022/01/27 03:40:03;;;;;;;24.57;12.63;;;;;;;-0.17;100.00;99439.38;5101994;28;20209;-63
2022/01/27 03:42:30;;;;;;;28.73;13.67;;;;;;;-0.18;100.00;99438.53;5105255;28;20680;-63
2022/01/27 03:44:56;;;;;;;27.13;13.27;;;;;;;-0.21;100.00;99441.13;5106977;28;20671;-63
2022/01/27 03:47:24;;;;;;;25.47;13.17;;;;;;;-0.17;100.00;99444.56;5106371;28;20230;-63
2022/01/27 03:49:51;;;;;;;24.87;13.17;;;;;;;-0.23;100.00;99442.88;5103288;28;20224;-63
2022/01/27 03:52:18;;;;;;;28.03;13.60;;;;;;;-0.22;100.00;99437.66;5104802;28;20215;-63
2022/01/27 03:54:44;;;;;;;30.20;14.87;;;;;;;-0.15;100.00;99433.31;5106734;28;20288;-63
2022/01/27 03:57:11;;;;;;;26.73;13.87;;;;;;;-0.19;100.00;99435.94;5107015;28;20211;-63
2022/01/27 03:59:37;;;;;;;27.27;13.57;;;;;;;-0.14;100.00;99423.78;5103165;28;20211;-63
2022/01/27 04:02:05;;;;;;;27.23;14.07;;;;;;;-0.17;100.00;99430.69;5104430;28;20218;-63
2022/01/27 04:04:33;;;;;;;26.30;13.47;;;;;;;-0.12;100.00;99415.09;5105085;28;20679;-63
2022/01/27 04:07:02;;;;;;;24.93;13.37;;;;;;;-0.08;100.00;99413.34;5106529;28;20261;-63
2022/01/27 04:09:28;;;;;;;23.43;12.87;;;;;;;-0.05;100.00;99404.63;5105272;28;20218;-63
2022/01/27 04:11:55;;;;;;;29.07;13.90;;;;;;;-0.05;100.00;99409.84;5106095;28;20591;-63
2022/01/27 04:14:21;;;;;;;27.97;13.73;;;;;;;-0.04;100.00;99401.16;5106578;28;20224;-63
2022/01/27 04:16:48;;;;;;;30.33;14.27;;;;;;;-0.08;100.00;99404.69;5106793;28;20213;-63
2022/01/27 04:19:14;;;;;;;29.27;14.77;;;;;;;-0.08;100.00;99391.69;5103005;28;20216;-63
2022/01/27 04:21:42;;;;;;;29.90;15.17;;;;;;;-0.08;100.00;99399.47;5103383;28;20217;-63
2022/01/27 04:24:11;;;;;;;25.03;12.97;;;;;;;-0.06;100.00;99397.72;5106510;28;20224;-63
2022/01/27 04:26:42;;;;;;;29.40;14.17;;;;;;;-0.08;100.00;99394.28;5106405;28;20273;-63
2022/01/27 04:29:09;;;;;;;30.50;14.33;;;;;;;-0.03;100.00;99392.50;5100151;28;20297;-63
2022/01/27 04:31:38;;;;;;;25.67;13.03;;;;;;;-0.01;100.00;99390.75;5102220;28;20664;-63
2022/01/27 04:34:04;;;;;;;26.27;13.90;;;;;;;0.00;100.00;99399.44;5106615;28;20287;-63
2022/01/27 04:36:33;;;;;;;24.73;12.83;;;;;;;0.01;100.00;99398.56;5106507;28;20256;-63
2022/01/27 04:39:11;;;;;;;29.03;14.47;;;;;;;0.00;100.00;99402.03;5102504;28;20272;-63
2022/01/27 04:41:44;;;;;;;29.23;14.30;;;;;;;0.00;100.00;99400.28;5105820;28;20220;-63
2022/01/27 04:44:19;;;;;;;27.87;13.93;;;;;;;0.03;100.00;99396.78;5106469;28;20275;-63
2022/01/27 04:46:51;;;;;;;26.70;13.83;;;;;;;0.04;100.00;99409.78;5103048;28;20283;-63
2022/01/27 04:49:17;;;;;;;29.00;14.50;;;;;;;0.00;100.00;99397.69;5105664;28;20702;-63
2022/01/27 04:51:44;;;;;;;29.73;14.63;;;;;;;0.01;100.00;99399.41;5110305;28;20253;-63
2022/01/27 04:54:17;;;;;;;25.23;14.17;;;;;;;0.07;100.00;99404.53;5110275;28;20708;-63
2022/01/27 04:56:44;;;;;;;27.20;13.33;;;;;;;0.07;100.00;99386.34;5104323;28;20282;-63
2022/01/27 04:59:16;;;;;;;26.73;13.10;;;;;;;0.10;100.00;99385.47;5107309;28;20673;-63
2022/01/27 05:01:47;;;;;;;26.70;13.27;;;;;;;0.12;100.00;99392.38;5110444;28;20221;-63
2022/01/27 05:04:17;;;;;;;24.13;12.60;;;;;;;0.13;100.00;99394.09;5108875;28;20224;-63
2022/01/27 05:06:43;;;;;;;32.83;15.00;;;;;;;0.14;100.00;99398.41;5106222;28;20241;-63
2022/01/27 05:09:11;;;;;;;25.53;13.30;;;;;;;0.14;100.00;99395.81;5109514;28;20217;-63
2022/01/27 05:11:45;;;;;;;26.40;13.60;;;;;;;0.11;100.00;99388.06;5109975;28;20211;-63
2022/01/27 05:14:16;;;;;;;27.47;13.03;;;;;;;0.10;100.00;99383.75;5107314;28;20217;-63
2022/01/27 05:16:43;;;;;;;22.93;13.43;;;;;;;0.16;100.00;99373.28;5106644;28;20245;-63
2022/01/27 05:19:10;;;;;;;25.73;13.77;;;;;;;0.14;100.00;99369.81;5110192;28;20214;-62
2022/01/27 05:21:37;;;;;;;25.30;13.27;;;;;;;0.10;100.00;99367.28;5110199;28;20224;-63
2022/01/27 05:24:05;;;;;;;25.33;12.40;;;;;;;0.09;100.00;99371.63;5105184;28;20306;-63
2022/01/27 05:26:34;;;;;;;26.70;13.50;;;;;;;0.09;100.00;99361.25;5106019;28;20242;-63
2022/01/27 05:29:01;;;;;;;23.40;13.30;;;;;;;0.08;100.00;99364.69;5109991;28;20213;-63
2022/01/27 05:31:27;;;;;;;22.77;13.60;;;;;;;0.08;100.00;99356.03;5109463;28;20695;-63
2022/01/27 05:33:54;;;;;;;23.43;12.50;;;;;;;-0.01;100.00;99364.78;5106442;28;20211;-63
2022/01/27 05:36:21;;;;;;;24.53;12.70;;;;;;;0.10;100.00;99362.94;5105798;28;20225;-63
2022/01/27 05:38:47;;;;;;;24.63;13.80;;;;;;;0.13;100.00;99370.72;5109749;28;20218;-63
2022/01/27 05:41:14;;;;;;;24.50;12.77;;;;;;;0.09;100.00;99376.84;5109525;28;20216;-63
2022/01/27 05:43:43;;;;;;;21.97;12.30;;;;;;;0.10;100.00;99388.94;5106979;28;20659;-63
2022/01/27 05:46:10;;;;;;;27.90;14.30;;;;;;;0.08;100.00;99385.47;5101690;28;20214;-63
2022/01/27 05:48:36;;;;;;;23.83;12.63;;;;;;;0.15;100.00;99387.19;5109343;28;20213;-63
2022/01/27 05:51:04;;;;;;;24.70;12.87;;;;;;;0.16;100.00;99391.50;5107882;28;20222;-63
2022/01/27 05:53:32;;;;;;;21.60;13.83;;;;;;;0.17;100.00;99393.22;5106537;28;20667;-63
2022/01/27 05:55:59;;;;;;;28.10;14.23;;;;;;;0.20;100.00;99384.53;5101482;28;20733;-63
2022/01/27 05:58:26;;;;;;;25.90;13.50;;;;;;;0.17;100.00;99385.41;5090084;28;20214;-63
2022/01/27 06:00:54;;;;;;;24.67;13.17;;;;;;;0.14;100.00;99390.63;5108152;28;20222;-63
2022/01/27 06:03:20;;;;;;;25.13;13.40;;;;;;;0.20;100.00;99390.56;5106684;28;20209;-63
2022/01/27 06:05:47;;;;;;;29.23;14.00;;;;;;;0.20;100.00;99393.16;5105393;28;20225;-63
2022/01/27 06:08:13;;;;;;;33.20;14.87;;;;;;;0.15;100.00;99388.91;5108900;28;20358;-63
2022/01/27 06:10:40;;;;;;;34.20;15.03;;;;;;;0.15;100.00;99392.38;5108909;28;20244;-63
2022/01/27 06:13:06;;;;;;;31.57;15.53;;;;;;;0.15;100.00;99392.38;5108491;28;20213;-63
2022/01/27 06:15:33;;;;;;;32.93;16.63;;;;;;;0.06;100.00;99397.63;5104000;28;20245;-63
2022/01/27 06:18:01;;;;;;;34.90;16.77;;;;;;;-0.03;100.00;99392.50;5107814;28;20603;-63
2022/01/27 06:20:29;;;;;;;33.90;16.23;;;;;;;-0.12;100.00;99389.97;5108545;28;20214;-63
2022/01/27 06:22:57;;;;;;;35.57;16.57;;;;;;;-0.07;100.00;99390.81;5106635;28;20292;-64
2022/01/27 06:25:24;;;;;;;32.87;15.73;;;;;;;-0.08;100.00;99385.59;5104933;28;20228;-63
2022/01/27 06:27:51;;;;;;;36.67;17.70;;;;;;;-0.05;100.00;99389.03;5108075;28;20238;-64
2022/01/27 06:30:18;;;;;;;37.07;17.97;;;;;;;-0.01;100.00;99397.69;5108333;28;20223;-63
2022/01/27 06:32:45;;;;;;;39.87;19.03;;;;;;;-0.03;100.00;99402.03;5106822;28;20209;-64
2022/01/27 06:35:13;;;;;;;36.80;18.23;;;;;;;-0.17;100.00;99418.59;5104649;28;20222;-64
2022/01/27 06:37:42;;;;;;;40.60;19.27;;;;;;;-0.25;100.00;99420.38;5107900;28;20211;-64
2022/01/27 06:40:10;;;;;;;39.97;18.80;;;;;;;-0.24;100.00;99419.50;5108835;28;20237;-64
2022/01/27 06:42:37;;;;;;;41.43;19.83;;;;;;;-0.38;100.00;99405.75;5104844;28;20221;-63
2022/01/27 06:45:04;;;;;;;43.80;19.23;;;;;;;-0.45;100.00;99410.09;5104550;28;20561;-63
2022/01/27 06:47:31;;;;;;;42.77;19.50;;;;;;;-0.65;100.00;99408.47;5107761;28;20244;-63
2022/01/27 06:49:57;;;;;;;44.83;19.17;;;;;;;-0.57;100.00;99407.56;5108036;28;20227;-63
2022/01/27 06:52:27;;;;;;;37.10;17.23;;;;;;;-0.53;100.00;99404.09;5106590;28;20224;-63
2022/01/27 06:54:55;;;;;;;35.93;16.80;;;;;;;-0.46;100.00;99404.91;5104181;28;20222;-63
2022/01/27 06:57:21;;;;;;;38.77;18.83;;;;;;;-0.44;100.00;99408.38;5107428;28;20221;-63
2022/01/27 06:59:48;;;;;;;34.57;17.53;;;;;;;-0.58;100.00;99399.78;5108217;28;20219;-63
2022/01/27 07:02:14;;;;;;;37.10;17.17;;;;;;;-0.45;100.00;99406.66;5106515;28;20208;-63
2022/01/27 07:04:41;;;;;;;36.07;17.67;;;;;;;-0.49;100.00;99404.94;5104044;28;20225;-63
2022/01/27 07:07:07;;;;;;;32.37;16.47;;;;;;;-0.53;100.00;99404.09;5106969;28;20249;-63
2022/01/27 07:09:35;;;;;;;33.30;17.00;;;;;;;-0.53;100.00;99408.41;5102879;28;20582;-62
2022/01/27 07:12:03;;;;;;;35.17;16.47;;;;;;;-0.41;100.00;99417.00;5106497;28;20211;-63
2022/01/27 07:14:31;;;;;;;36.90;17.07;;;;;;;-0.53;100.00;99418.78;5103646;28;20209;-63
2022/01/27 07:16:57;;;;;;;32.43;16.30;;;;;;;-0.58;100.00;99425.75;5106350;28;20223;-63
2022/01/27 07:19:24;;;;;;;34.90;16.53;;;;;;;-0.65;100.00;99424.06;5107790;27;20221;-62
2022/01/27 07:21:50;;;;;;;30.43;15.13;;;;;;;-0.65;100.00;99426.66;5106723;28;20596;-63
2022/01/27 07:24:17;;;;;;;31.73;16.07;;;;;;;-0.62;100.00;99429.25;5103668;28;20212;-63
2022/01/27 07:26:45;;;;;;;33.63;14.37;;;;;;;-0.49;100.00;99430.91;5105578;28;20220;-63
2022/01/27 07:29:11;;;;;;;34.10;16.50;;;;;;;-0.44;100.00;99429.16;5107476;28;20213;-63
2022/01/27 07:31:38;;;;;;;33.83;16.13;;;;;;;-0.52;100.00;99426.59;5106505;28;20220;-63
2022/01/27 07:34:04;;;;;;;30.83;15.53;;;;;;;-0.58;100.00;99430.94;5101777;28;20221;-63
2022/01/27 07:36:31;;;;;;;32.23;14.17;;;;;;;-0.61;100.00;99430.97;5105509;28;20589;-63
2022/01/27 07:38:58;;;;;;;33.17;15.63;;;;;;;-0.67;100.00;99438.78;5107081;28;20761;-63
2022/01/27 07:41:25;;;;;;;32.47;15.90;;;;;;;-0.75;100.00;99443.16;5106679;28;20216;-63
2022/01/27 07:43:53;;;;;;;31.87;15.23;;;;;;;-0.69;100.00;99448.31;5103406;28;20585;-63
2022/01/27 07:46:19;;;;;;;31.90;15.80;;;;;;;-0.75;100.00;99448.34;5105138;28;20227;-63
2022/01/27 07:48:46;;;;;;;34.00;16.57;;;;;;;-0.79;100.00;99452.69;5107115;28;20240;-63
2022/01/27 07:51:12;;;;;;;35.13;16.33;;;;;;;-0.93;100.00;99449.25;5106992;28;20219;-63
2022/01/27 07:53:42;;;;;;;36.07;16.83;;;;;;;-0.98;100.00;99444.94;5103243;28;20214;-63
2022/01/27 07:56:09;;;;;;;37.30;15.97;;;;;;;-0.96;100.00;99448.41;5105000;28;20222;-63
2022/01/27 07:58:38;;;;;;;34.73;15.93;;;;;;;-0.91;100.00;99436.28;5106767;28;20216;-63
2022/01/27 08:01:08;;;;;;;36.87;16.53;;;;;;;-0.93;100.00;99438.88;5104594;28;20261;-63
2022/01/27 08:03:34;;;;;;;37.83;16.77;;;;;;;-0.89;100.00;99439.72;5103167;28;20249;-63
2022/01/27 08:06:01;;;;;;;39.87;15.93;;;;;;;-0.88;100.00;99426.75;5105092;28;20221;-63
2022/01/27 08:08:27;;;;;;;40.40;18.00;;;;;;;-0.93;100.00;99433.69;5106460;28;20714;-63
2022/01/27 08:10:54;;;;;;;43.20;17.87;;;;;;;-0.94;100.00;99431.97;5106510;28;20240;-63
2022/01/27 08:13:20;;;;;;;40.23;16.87;;;;;;;-0.84;100.00;99440.56;5103706;28;20672;-63
2022/01/27 08:15:47;;;;;;;41.53;17.03;;;;;;;-0.75;100.00;99444.00;5104215;28;20255;-63
2022/01/27 08:18:15;;;;;;;37.13;16.50;;;;;;;-0.76;100.00;99446.59;5106330;28;20216;-64
2022/01/27 08:20:41;;;;;;;35.90;16.87;;;;;;;-0.74;100.00;99440.53;5106700;28;20217;-63
2022/01/27 08:23:08;;;;;;;40.70;19.13;;;;;;;-0.75;100.00;99436.22;5095454;28;20217;-63
2022/01/27 08:25:35;;;;;;;37.43;17.17;;;;;;;-0.74;100.00;99435.34;5101510;28;20579;-63
2022/01/27 08:28:05;;;;;;;42.07;16.80;;;;;;;-0.80;100.00;99440.53;5106023;28;20244;-63
2022/01/27 08:30:38;;;;;;;43.57;16.93;;;;;;;-0.81;100.00;99435.38;5106443;28;20591;-63
2022/01/27 08:33:08;;;;;;;38.07;16.90;;;;;;;-0.80;100.00;99437.09;5096732;28;20631;-62
2022/01/27 08:35:36;;;;;;;38.23;15.93;;;;;;;-0.90;100.00;99438.88;5105172;28;20215;-63
2022/01/27 08:38:03;;;;;;;44.30;19.20;;;;;;;-0.82;100.00;99450.09;5106179;28;20230;-63
2022/01/27 08:40:30;;;;;;;41.97;18.17;;;;;;;-0.72;100.00;99448.31;5105496;28;20210;-63
2022/01/27 08:42:57;;;;;;;36.57;16.63;;;;;;;-0.66;100.00;99440.50;5100651;28;20220;-63
2022/01/27 08:45:24;;;;;;;38.10;17.43;;;;;;;-0.61;100.00;99433.56;5102670;28;20224;-63
2022/01/27 08:47:54;;;;;;;43.07;19.00;;;;;;;-0.61;100.00;99425.78;5105556;28;20271;-63
2022/01/27 08:50:22;;;;;;;40.83;17.53;;;;;;;-0.55;100.00;99425.75;5103909;28;20688;-64
2022/01/27 08:52:50;;;;;;;37.80;16.40;;;;;;;-0.55;100.00;99421.41;5093756;28;20215;-63
2022/01/27 08:55:16;;;;;;;35.17;16.17;;;;;;;-0.58;100.00;99417.94;5079996;28;20582;-63
2022/01/27 08:57:43;;;;;;;36.97;15.43;;;;;;;-0.49;100.00;99415.31;5102306;28;20240;-63
2022/01/27 09:00:13;;;;;;;37.00;16.10;;;;;;;-0.48;100.00;99411.84;5098751;28;20223;-63
2022/01/27 09:02:39;;;;;;;30.10;15.03;;;;;;;-0.43;100.00;99403.16;5098777;28;20221;-64
2022/01/27 09:05:06;;;;;;;34.43;15.20;;;;;;;-0.33;100.00;99411.78;5101410;28;20213;-63
2022/01/27 09:07:34;;;;;;;31.03;14.47;;;;;;;-0.24;100.00;99411.72;5101994;28;20236;-64
2022/01/27 09:10:01;;;;;;;32.93;14.70;;;;;;;-0.10;100.00;99397.75;5098764;28;20323;-64
2022/01/27 09:12:28;;;;;;;31.73;13.87;;;;;;;0.03;100.00;99387.28;5100615;28;20209;-63
2022/01/27 09:14:56;;;;;;;31.50;14.93;;;;;;;-0.02;100.00;99383.84;5101112;28;20703;-64
2022/01/27 09:17:26;;;;;;;25.80;13.10;;;;;;;0.01;100.00;99394.19;5102007;28;20249;-63
2022/01/27 09:19:52;;;;;;;26.10;11.87;;;;;;;0.08;100.00;99395.88;5096963;28;20212;-63
2022/01/27 09:22:19;;;;;;;25.47;12.70;;;;;;;0.21;100.00;99394.94;5098592;28;20235;-63
2022/01/27 09:24:55;;;;;;;25.87;11.87;;;;;;;0.32;100.00;99395.66;5101515;28;20218;-63
2022/01/27 09:27:24;;;;;;;29.23;13.03;;;;;;;0.51;100.00;99402.41;5101071;28;20565;-63
2022/01/27 09:29:51;;;;;;;26.47;12.83;;;;;;;0.57;100.00;99402.38;5098355;28;20214;-63
2022/01/27 09:32:18;;;;;;;25.67;12.13;;;;;;;0.60;99.93;99402.34;5098890;28;20229;-64
2022/01/27 09:34:45;;;;;;;25.17;11.20;;;;;;;0.74;99.52;99404.81;5090214;28;20601;-63
2022/01/27 09:37:12;;;;;;;24.23;11.53;;;;;;;0.84;99.82;99409.91;5103497;28;20225;-63
2022/01/27 09:39:40;;;;;;;21.53;10.93;;;;;;;0.95;99.20;99397.66;5102303;28;20207;-63
2022/01/27 09:42:08;;;;;;;20.40;10.00;;;;;;;1.03;98.96;99401.03;5102510;28;20218;-64
2022/01/27 09:44:37;;;;;;;20.87;11.40;;;;;;;1.10;98.65;99388.81;5098007;28;20225;-63
2022/01/27 09:47:06;;;;;;;23.20;11.50;;;;;;;1.11;98.66;99396.56;5103898;27;20225;-63
2022/01/27 09:49:37;;;;;;;21.93;10.50;;;;;;;1.21;98.20;99394.72;5101979;28;20234;-63
2022/01/27 09:52:04;;;;;;;17.00;8.70;;;;;;;1.29;98.14;99387.69;5102817;28;20218;-63
2022/01/27 09:54:32;;;;;;;18.80;9.40;;;;;;;1.37;97.95;99386.72;5105870;28;20214;-63
2022/01/27 09:56:58;;;;;;;19.33;10.10;;;;;;;1.42;97.70;99374.47;5102824;28;20213;-63
2022/01/27 09:59:25;;;;;;;17.33;9.57;;;;;;;1.51;96.84;99376.09;5094627;28;20218;-64
2022/01/27 10:01:58;;;;;;;16.27;8.80;;;;;;;1.55;97.13;99363.03;5102068;28;20209;-63
2022/01/27 10:04:41;;;;;;;17.77;9.27;;;;;;;1.68;96.63;99359.38;5105506;28;20214;-63
2022/01/27 10:07:07;;;;;;;16.40;8.80;;;;;;;1.78;96.28;99366.13;5099696;28;20218;-64
2022/01/27 10:09:34;;;;;;;15.43;8.83;;;;;;;1.80;96.14;99369.59;5096690;28;20269;-64
2022/01/27 10:12:03;;;;;;;16.00;8.97;;;;;;;1.85;96.70;99367.75;5104077;28;20251;-63
2022/01/27 10:14:33;;;;;;;15.60;8.90;;;;;;;1.89;96.04;99366.00;5103716;28;20229;-64
2022/01/27 10:17:02;;;;;;;13.97;8.07;;;;;;;1.89;96.69;99359.03;5101298;28;20698;-63
2022/01/27 10:19:30;;;;;;;14.63;8.23;;;;;;;1.95;97.01;99356.31;5101609;28;20225;-64
2022/01/27 10:22:00;;;;;;;17.90;8.30;;;;;;;2.05;96.64;99359.63;5092811;28;20213;-64
2022/01/27 10:24:29;;;;;;;16.00;8.90;;;;;;;2.11;96.54;99355.19;5103250;28;20210;-64
2022/01/27 10:27:27;;;;;;;14.03;7.63;;;;;;;2.13;97.05;99358.63;5093991;28;20214;-64
2022/01/27 10:32:48;;;;;;;12.83;7.40;;;;;;;2.26;96.98;99339.28;5092339;28;20713;-64
2022/01/27 10:35:16;;;;;;;13.93;8.23;;;;;;;2.31;96.65;99341.81;5101356;28;20207;-63
2022/01/27 10:38:01;;;;;;;15.63;7.70;;;;;;;2.34;96.99;99341.75;5091386;28;20225;-64
2022/01/27 10:40:30;;;;;;;13.33;7.77;;;;;;;2.38;96.78;99343.44;5098785;28;20226;-63
2022/01/27 10:43:12;;;;;;;15.83;8.50;;;;;;;2.38;96.93;99344.28;5100993;28;20213;-64
2022/01/27 10:45:57;;;;;;;13.17;7.87;;;;;;;2.37;96.54;99337.34;5094477;28;20213;-64
2022/01/27 10:48:28;;;;;;;15.13;8.47;;;;;;;2.37;96.41;99337.34;5099255;28;20245;-64
2022/01/27 10:51:01;;;;;;;14.17;7.20;;;;;;;2.44;96.49;99336.34;5101164;28;20301;-63
2022/01/27 10:53:49;;;;;;;12.73;7.20;;;;;;;2.53;97.05;99337.94;5104550;28;20216;-63
2022/01/27 10:56:17;;;;;;;53.50;12.50;;;;;;;2.56;96.95;99343.97;5091541;28;20711;-67
2022/01/27 10:58:44;;;;;;;33.57;10.13;;;;;;;2.67;96.58;99331.56;5100857;28;20212;-64
2022/01/27 11:01:11;;;;;;;15.27;8.03;;;;;;;2.71;96.12;99338.47;5103603;28;20214;-64
2022/01/27 11:03:49;;;;;;;14.00;7.50;;;;;;;2.70;96.47;99331.50;5101932;28;20214;-65
2022/01/27 11:06:16;;;;;;;11.37;7.33;;;;;;;2.76;96.33;99328.78;5100777;28;20214;-65
2022/01/27 11:08:42;;;;;;;10.70;6.77;;;;;;;2.74;96.23;99311.41;5100366;28;20241;-64
2022/01/27 11:11:09;;;;;;;13.40;7.67;;;;;;;2.75;96.10;99314.00;5104664;28;20221;-64
2022/01/27 11:13:36;;;;;;;11.83;7.17;;;;;;;2.77;96.23;99316.59;5103080;28;20686;-65
2022/01/27 11:16:03;;;;;;;12.53;6.90;;;;;;;2.76;96.41;99315.72;5100199;28;20247;-64
2022/01/27 11:18:30;;;;;;;11.00;7.23;;;;;;;2.81;96.49;99305.22;5100210;28;20222;-64
2022/01/27 11:21:07;;;;;;;12.57;7.20;;;;;;;2.83;96.32;99306.91;5092155;28;20210;-64
2022/01/27 11:26:28;;;;;;;11.23;6.73;;;;;;;2.91;96.51;99305.00;5096755;28;20359;-63
2022/01/27 11:28:57;;;;;;;12.87;7.17;;;;;;;2.86;96.70;99300.72;5102263;28;20234;-63
2022/01/27 11:31:37;;;;;;;10.47;6.80;;;;;;;2.92;96.66;99311.94;5101024;28;20591;-64
2022/01/27 11:34:06;;;;;;;13.23;7.30;;;;;;;2.96;96.95;99313.59;5100050;28;20230;-64
2022/01/27 11:36:36;;;;;;;12.70;7.03;;;;;;;2.99;96.91;99308.28;5102715;28;20652;-64
2022/01/27 11:39:04;;;;;;;14.97;7.53;;;;;;;3.02;96.25;99303.03;5102449;28;20622;-63
2022/01/27 11:41:51;;;;;;;12.70;7.20;;;;;;;3.12;95.95;99288.03;5099554;28;20218;-63
2022/01/27 11:44:26;;;;;;;13.87;8.20;;;;;;;3.14;96.11;99294.94;5097958;28;20217;-63
2022/01/27 11:47:28;;;;;;;13.60;7.60;;;;;;;3.13;95.84;99294.97;5102628;28;20559;-63
2022/01/27 11:50:04;;;;;;;13.93;7.97;;;;;;;3.07;95.24;99285.47;5013140;28;20738;-63